This is the latest recevied weather packets stored in our database for station/object KM4LTG. If no packets are shown the sender has not sent any weather packets the latest 10 day(s).
| Time | Temp. | Humidity | Pressure | Rain* | Wind** | Luminosity | Snow |
|---|---|---|---|---|---|---|---|
| 1777777096 | 21.11° C | 89% | 1014.2 hPa | 0 mm | - | - | - |
| 1777776854 | 21.67° C | 89% | 1014.2 hPa | 0 mm | - | - | - |
| 1777776565 | 21.67° C | 89% | 1014.2 hPa | 0 mm | - | - | - |
| 1777776285 | 21.67° C | 89% | 1014.1 hPa | 0 mm | - | - | - |
| 1777776012 | 21.67° C | 89% | 1014 hPa | 0 mm | - | - | - |
| 1777775720 | 21.67° C | 89% | 1014 hPa | 0 mm | - | - | - |
| 1777775480 | 21.67° C | 88% | 1013.9 hPa | 0.76 mm | - | - | - |
| 1777775185 | 21.67° C | 88% | 1014 hPa | 1.27 mm | - | - | - |
| 1777774934 | 21.67° C | 87% | 1014.1 hPa | 2.03 mm | - | - | - |
| 1777774694 | 22.22° C | 87% | 1014.2 hPa | 16 mm | - | - | - |
| 1777774396 | 22.78° C | 88% | 1013.9 hPa | 0 mm | - | - | - |
| 1777774115 | 22.78° C | 87% | 1013.8 hPa | 0 mm | - | - | - |
| 1777773822 | 22.78° C | 88% | 1013.8 hPa | 0 mm | - | - | - |
| 1777773265 | 22.78° C | 87% | 1013.6 hPa | 0 mm | - | - | - |
| 1777772729 | 22.78° C | 87% | 1013.5 hPa | 0 mm | - | - | - |
| 1777772200 | 22.78° C | 87% | 1013.3 hPa | 0 mm | - | - | - |
| 1777771950 | 22.78° C | 87% | 1013.2 hPa | 0 mm | - | - | - |
| 1777771685 | 22.78° C | 87% | 1013.1 hPa | 0 mm | - | - | - |
| 1777771180 | 22.22° C | 88% | 1013.1 hPa | 0 mm | - | - | - |
| 1777770635 | 22.22° C | 88% | 1012.9 hPa | 0 mm | - | - | - |
| 1777770385 | 22.22° C | 88% | 1013 hPa | 0 mm | - | - | - |
| 1777769825 | 22.22° C | 89% | 1012.9 hPa | 0 mm | - | - | - |
| 1777769580 | 22.22° C | 90% | 1012.8 hPa | 0 mm | - | - | - |
| 1777768742 | 21.67° C | 90% | 1012.6 hPa | 0 mm | - | - | - |
| 1777767945 | 22.22° C | 91% | 1012.5 hPa | 0 mm | - | - | - |
* Rain latest hour (hover to see other rain measurements)
** Current wind speed in m/s (hover to see current wind gust speed)